sensor_id;sensor_type;location;lat;lon;timestamp;temperature;humidity
53294;DHT22;39181;53.440;5.644;2023-08-21T00:00:14;15.70;99.90
53294;DHT22;39181;53.440;5.644;2023-08-21T00:02:40;15.70;99.90
53294;DHT22;39181;53.440;5.644;2023-08-21T00:05:06;15.60;99.90
53294;DHT22;39181;53.440;5.644;2023-08-21T00:07:31;15.60;99.90
53294;DHT22;39181;53.440;5.644;2023-08-21T00:09:57;15.60;99.90
53294;DHT22;39181;53.440;5.644;2023-08-21T00:12:23;15.60;99.90
53294;DHT22;39181;53.440;5.644;2023-08-21T00:14:48;15.60;99.90
53294;DHT22;39181;53.440;5.644;2023-08-21T00:17:14;15.50;99.90
53294;DHT22;39181;53.440;5.644;2023-08-21T00:19:39;15.60;99.90
53294;DHT22;39181;53.440;5.644;2023-08-21T00:22:05;15.50;99.90
53294;DHT22;39181;53.440;5.644;2023-08-21T00:24:30;15.40;99.90
53294;DHT22;39181;53.440;5.644;2023-08-21T00:26:56;15.30;99.90
53294;DHT22;39181;53.440;5.644;2023-08-21T00:29:22;15.20;99.90
53294;DHT22;39181;53.440;5.644;2023-08-21T00:31:47;15.20;99.90
53294;DHT22;39181;53.440;5.644;2023-08-21T00:34:13;15.10;99.90
53294;DHT22;39181;53.440;5.644;2023-08-21T00:36:38;15.10;99.90
53294;DHT22;39181;53.440;5.644;2023-08-21T00:39:04;14.90;99.90
53294;DHT22;39181;53.440;5.644;2023-08-21T00:41:29;15.30;99.90
53294;DHT22;39181;53.440;5.644;2023-08-21T00:43:56;14.90;99.90
53294;DHT22;39181;53.440;5.644;2023-08-21T00:46:22;14.80;99.90
53294;DHT22;39181;53.440;5.644;2023-08-21T00:48:47;14.90;99.90
53294;DHT22;39181;53.440;5.644;2023-08-21T00:51:14;14.80;99.90
53294;DHT22;39181;53.440;5.644;2023-08-21T00:53:41;14.80;99.90
53294;DHT22;39181;53.440;5.644;2023-08-21T00:56:07;14.80;99.90
53294;DHT22;39181;53.440;5.644;2023-08-21T00:58:33;14.80;99.90
53294;DHT22;39181;53.440;5.644;2023-08-21T01:00:59;14.90;99.90
53294;DHT22;39181;53.440;5.644;2023-08-21T01:03:25;14.90;99.90
53294;DHT22;39181;53.440;5.644;2023-08-21T01:05:50;14.90;99.90
53294;DHT22;39181;53.440;5.644;2023-08-21T01:08:47;14.90;99.90
53294;DHT22;39181;53.440;5.644;2023-08-21T01:11:20;14.90;99.90
53294;DHT22;39181;53.440;5.644;2023-08-21T01:14:17;14.80;99.90
53294;DHT22;39181;53.440;5.644;2023-08-21T01:16:51;14.70;99.90
53294;DHT22;39181;53.440;5.644;2023-08-21T01:19:31;14.60;99.90
53294;DHT22;39181;53.440;5.644;2023-08-21T01:22:01;14.60;99.90
53294;DHT22;39181;53.440;5.644;2023-08-21T01:24:26;14.60;99.90
53294;DHT22;39181;53.440;5.644;2023-08-21T01:26:52;14.50;99.90
53294;DHT22;39181;53.440;5.644;2023-08-21T01:29:17;14.50;99.90
53294;DHT22;39181;53.440;5.644;2023-08-21T01:31:47;14.40;99.90
53294;DHT22;39181;53.440;5.644;2023-08-21T01:34:15;14.40;99.90
53294;DHT22;39181;53.440;5.644;2023-08-21T01:36:43;14.30;99.90
53294;DHT22;39181;53.440;5.644;2023-08-21T01:39:08;14.30;99.90
53294;DHT22;39181;53.440;5.644;2023-08-21T01:41:34;14.30;99.90
53294;DHT22;39181;53.440;5.644;2023-08-21T01:44:00;14.40;99.90
53294;DHT22;39181;53.440;5.644;2023-08-21T01:46:25;14.40;99.90
53294;DHT22;39181;53.440;5.644;2023-08-21T01:48:51;14.60;99.90
53294;DHT22;39181;53.440;5.644;2023-08-21T01:51:16;14.80;99.90
53294;DHT22;39181;53.440;5.644;2023-08-21T01:53:42;14.70;99.90
53294;DHT22;39181;53.440;5.644;2023-08-21T01:56:07;14.80;99.90
53294;DHT22;39181;53.440;5.644;2023-08-21T01:58:33;14.90;99.90
53294;DHT22;39181;53.440;5.644;2023-08-21T02:00:58;15.10;99.90
53294;DHT22;39181;53.440;5.644;2023-08-21T02:03:27;15.20;99.90
53294;DHT22;39181;53.440;5.644;2023-08-21T02:05:56;15.20;99.90
53294;DHT22;39181;53.440;5.644;2023-08-21T02:08:30;15.30;99.90
53294;DHT22;39181;53.440;5.644;2023-08-21T02:10:57;15.40;99.90
53294;DHT22;39181;53.440;5.644;2023-08-21T02:13:22;15.40;99.90
53294;DHT22;39181;53.440;5.644;2023-08-21T02:15:48;15.50;99.90
53294;DHT22;39181;53.440;5.644;2023-08-21T02:18:13;15.50;99.90
53294;DHT22;39181;53.440;5.644;2023-08-21T02:20:39;15.60;99.90
53294;DHT22;39181;53.440;5.644;2023-08-21T02:23:04;15.40;99.90
53294;DHT22;39181;53.440;5.644;2023-08-21T02:25:31;15.60;99.90
53294;DHT22;39181;53.440;5.644;2023-08-21T02:27:57;15.60;99.90
53294;DHT22;39181;53.440;5.644;2023-08-21T02:30:23;15.70;99.90
53294;DHT22;39181;53.440;5.644;2023-08-21T02:32:54;15.60;99.90
53294;DHT22;39181;53.440;5.644;2023-08-21T02:35:23;15.70;99.90
53294;DHT22;39181;53.440;5.644;2023-08-21T02:37:48;16.00;99.90
53294;DHT22;39181;53.440;5.644;2023-08-21T02:40:14;15.70;99.90
53294;DHT22;39181;53.440;5.644;2023-08-21T02:42:40;15.80;99.90
53294;DHT22;39181;53.440;5.644;2023-08-21T02:45:06;15.80;99.90
53294;DHT22;39181;53.440;5.644;2023-08-21T02:47:38;15.80;99.90
53294;DHT22;39181;53.440;5.644;2023-08-21T02:50:05;15.90;99.90
53294;DHT22;39181;53.440;5.644;2023-08-21T02:52:31;15.90;99.90
53294;DHT22;39181;53.440;5.644;2023-08-21T02:54:57;16.00;99.90
53294;DHT22;39181;53.440;5.644;2023-08-21T02:57:24;16.00;99.90
53294;DHT22;39181;53.440;5.644;2023-08-21T02:59:49;16.10;99.90
53294;DHT22;39181;53.440;5.644;2023-08-21T03:02:15;16.00;99.90
53294;DHT22;39181;53.440;5.644;2023-08-21T03:04:41;16.00;99.90
53294;DHT22;39181;53.440;5.644;2023-08-21T03:07:06;16.00;99.90
53294;DHT22;39181;53.440;5.644;2023-08-21T03:09:32;16.00;99.90
53294;DHT22;39181;53.440;5.644;2023-08-21T03:11:57;16.00;99.90
53294;DHT22;39181;53.440;5.644;2023-08-21T03:14:25;16.00;99.90
53294;DHT22;39181;53.440;5.644;2023-08-21T03:16:50;16.10;99.90
53294;DHT22;39181;53.440;5.644;2023-08-21T03:19:16;16.10;99.90
53294;DHT22;39181;53.440;5.644;2023-08-21T03:21:41;16.20;99.90
53294;DHT22;39181;53.440;5.644;2023-08-21T03:24:07;16.10;99.90
53294;DHT22;39181;53.440;5.644;2023-08-21T03:26:33;16.20;99.90
53294;DHT22;39181;53.440;5.644;2023-08-21T03:28:58;16.10;99.90
53294;DHT22;39181;53.440;5.644;2023-08-21T03:31:24;16.10;99.90
53294;DHT22;39181;53.440;5.644;2023-08-21T03:33:49;16.10;99.90
53294;DHT22;39181;53.440;5.644;2023-08-21T03:36:15;16.20;99.90
53294;DHT22;39181;53.440;5.644;2023-08-21T03:38:41;16.20;99.90
53294;DHT22;39181;53.440;5.644;2023-08-21T03:41:06;16.10;99.90
53294;DHT22;39181;53.440;5.644;2023-08-21T03:43:32;16.10;99.90
53294;DHT22;39181;53.440;5.644;2023-08-21T03:45:58;16.20;99.90
53294;DHT22;39181;53.440;5.644;2023-08-21T03:48:23;16.10;99.90
53294;DHT22;39181;53.440;5.644;2023-08-21T03:50:49;16.10;99.90
53294;DHT22;39181;53.440;5.644;2023-08-21T03:53:15;16.10;99.90
53294;DHT22;39181;53.440;5.644;2023-08-21T03:55:41;16.10;99.90
53294;DHT22;39181;53.440;5.644;2023-08-21T03:58:06;16.00;99.90
53294;DHT22;39181;53.440;5.644;2023-08-21T04:00:32;16.10;99.90
53294;DHT22;39181;53.440;5.644;2023-08-21T04:02:57;16.00;99.90
53294;DHT22;39181;53.440;5.644;2023-08-21T04:05:23;16.00;99.90
53294;DHT22;39181;53.440;5.644;2023-08-21T04:07:49;16.00;99.90
53294;DHT22;39181;53.440;5.644;2023-08-21T04:10:14;16.00;99.90
53294;DHT22;39181;53.440;5.644;2023-08-21T04:12:41;16.00;99.90
53294;DHT22;39181;53.440;5.644;2023-08-21T04:15:07;16.00;99.90
53294;DHT22;39181;53.440;5.644;2023-08-21T04:17:33;16.00;99.90
53294;DHT22;39181;53.440;5.644;2023-08-21T04:19:59;15.90;99.90
53294;DHT22;39181;53.440;5.644;2023-08-21T04:22:24;15.90;99.90
53294;DHT22;39181;53.440;5.644;2023-08-21T04:24:50;15.90;99.90
53294;DHT22;39181;53.440;5.644;2023-08-21T04:27:16;15.90;99.90
53294;DHT22;39181;53.440;5.644;2023-08-21T04:29:41;15.90;99.90
53294;DHT22;39181;53.440;5.644;2023-08-21T04:32:07;15.90;99.90
53294;DHT22;39181;53.440;5.644;2023-08-21T04:34:33;15.90;99.90
53294;DHT22;39181;53.440;5.644;2023-08-21T04:36:58;15.90;99.90
53294;DHT22;39181;53.440;5.644;2023-08-21T04:39:24;15.90;99.90
53294;DHT22;39181;53.440;5.644;2023-08-21T04:41:49;16.00;99.90
53294;DHT22;39181;53.440;5.644;2023-08-21T04:44:15;16.00;99.90
53294;DHT22;39181;53.440;5.644;2023-08-21T04:46:41;16.10;99.90
53294;DHT22;39181;53.440;5.644;2023-08-21T04:49:06;16.00;99.90
53294;DHT22;39181;53.440;5.644;2023-08-21T04:51:32;16.10;99.90
53294;DHT22;39181;53.440;5.644;2023-08-21T04:53:57;16.10;99.90
53294;DHT22;39181;53.440;5.644;2023-08-21T04:56:25;16.20;99.90
53294;DHT22;39181;53.440;5.644;2023-08-21T04:58:51;16.20;99.90
53294;DHT22;39181;53.440;5.644;2023-08-21T05:01:16;16.20;99.90
53294;DHT22;39181;53.440;5.644;2023-08-21T05:03:42;16.30;99.90
53294;DHT22;39181;53.440;5.644;2023-08-21T05:06:07;16.30;99.90
53294;DHT22;39181;53.440;5.644;2023-08-21T05:08:34;16.40;99.90
53294;DHT22;39181;53.440;5.644;2023-08-21T05:11:00;16.40;99.90
53294;DHT22;39181;53.440;5.644;2023-08-21T05:13:26;16.40;99.90
53294;DHT22;39181;53.440;5.644;2023-08-21T05:15:55;16.50;99.90
53294;DHT22;39181;53.440;5.644;2023-08-21T05:18:22;16.50;99.90
53294;DHT22;39181;53.440;5.644;2023-08-21T05:20:49;16.60;99.90
53294;DHT22;39181;53.440;5.644;2023-08-21T05:23:15;16.60;99.90
53294;DHT22;39181;53.440;5.644;2023-08-21T05:25:41;16.60;99.90
53294;DHT22;39181;53.440;5.644;2023-08-21T05:28:07;16.70;99.90
53294;DHT22;39181;53.440;5.644;2023-08-21T05:30:32;16.60;99.90
53294;DHT22;39181;53.440;5.644;2023-08-21T05:32:58;16.70;99.90
53294;DHT22;39181;53.440;5.644;2023-08-21T05:35:24;16.80;99.90
53294;DHT22;39181;53.440;5.644;2023-08-21T05:37:49;16.80;99.90
53294;DHT22;39181;53.440;5.644;2023-08-21T05:40:15;16.90;99.90
53294;DHT22;39181;53.440;5.644;2023-08-21T05:42:40;16.90;99.90
53294;DHT22;39181;53.440;5.644;2023-08-21T05:45:06;17.00;99.90
53294;DHT22;39181;53.440;5.644;2023-08-21T05:47:32;17.00;99.90
53294;DHT22;39181;53.440;5.644;2023-08-21T05:49:58;17.00;99.90
53294;DHT22;39181;53.440;5.644;2023-08-21T05:52:23;17.10;99.90
53294;DHT22;39181;53.440;5.644;2023-08-21T05:54:49;17.10;99.90
53294;DHT22;39181;53.440;5.644;2023-08-21T05:57:15;17.20;99.90
53294;DHT22;39181;53.440;5.644;2023-08-21T05:59:46;17.20;99.90
53294;DHT22;39181;53.440;5.644;2023-08-21T06:02:13;17.30;99.90
53294;DHT22;39181;53.440;5.644;2023-08-21T06:04:42;17.40;99.90
53294;DHT22;39181;53.440;5.644;2023-08-21T06:07:09;17.40;99.90
53294;DHT22;39181;53.440;5.644;2023-08-21T06:09:35;17.50;99.90
53294;DHT22;39181;53.440;5.644;2023-08-21T06:12:02;17.60;99.90
53294;DHT22;39181;53.440;5.644;2023-08-21T06:14:28;17.60;99.90
53294;DHT22;39181;53.440;5.644;2023-08-21T06:17:00;17.70;99.90
53294;DHT22;39181;53.440;5.644;2023-08-21T06:19:27;17.70;99.90
53294;DHT22;39181;53.440;5.644;2023-08-21T06:21:52;17.80;99.90
53294;DHT22;39181;53.440;5.644;2023-08-21T06:24:18;17.80;99.90
53294;DHT22;39181;53.440;5.644;2023-08-21T06:26:43;17.90;99.90
53294;DHT22;39181;53.440;5.644;2023-08-21T06:29:09;17.90;99.90
53294;DHT22;39181;53.440;5.644;2023-08-21T06:31:34;17.90;99.90
53294;DHT22;39181;53.440;5.644;2023-08-21T06:34:00;18.00;99.90
53294;DHT22;39181;53.440;5.644;2023-08-21T06:36:25;18.00;99.90
53294;DHT22;39181;53.440;5.644;2023-08-21T06:38:51;18.00;99.90
53294;DHT22;39181;53.440;5.644;2023-08-21T06:41:17;18.10;99.90
53294;DHT22;39181;53.440;5.644;2023-08-21T06:43:42;18.10;99.90
53294;DHT22;39181;53.440;5.644;2023-08-21T06:46:08;18.10;99.90
53294;DHT22;39181;53.440;5.644;2023-08-21T06:48:37;18.20;99.90
53294;DHT22;39181;53.440;5.644;2023-08-21T06:51:03;18.10;99.90
53294;DHT22;39181;53.440;5.644;2023-08-21T06:53:28;18.30;99.90
53294;DHT22;39181;53.440;5.644;2023-08-21T06:55:54;18.30;99.90
53294;DHT22;39181;53.440;5.644;2023-08-21T06:58:20;18.30;99.90
53294;DHT22;39181;53.440;5.644;2023-08-21T07:00:45;18.30;99.90
53294;DHT22;39181;53.440;5.644;2023-08-21T07:03:11;18.40;99.90
53294;DHT22;39181;53.440;5.644;2023-08-21T07:05:37;18.40;99.90
53294;DHT22;39181;53.440;5.644;2023-08-21T07:08:03;18.50;99.90
53294;DHT22;39181;53.440;5.644;2023-08-21T07:10:29;18.50;99.90
53294;DHT22;39181;53.440;5.644;2023-08-21T07:12:55;18.70;99.90
53294;DHT22;39181;53.440;5.644;2023-08-21T07:15:21;18.70;99.90
53294;DHT22;39181;53.440;5.644;2023-08-21T07:17:47;18.80;99.90
53294;DHT22;39181;53.440;5.644;2023-08-21T07:20:12;18.80;99.90
53294;DHT22;39181;53.440;5.644;2023-08-21T07:22:38;19.00;99.90
53294;DHT22;39181;53.440;5.644;2023-08-21T07:25:04;19.10;99.90
53294;DHT22;39181;53.440;5.644;2023-08-21T07:27:31;19.20;99.90
53294;DHT22;39181;53.440;5.644;2023-08-21T07:29:56;19.40;99.90
53294;DHT22;39181;53.440;5.644;2023-08-21T07:32:22;19.40;99.90
53294;DHT22;39181;53.440;5.644;2023-08-21T07:34:52;19.50;99.90
53294;DHT22;39181;53.440;5.644;2023-08-21T07:37:17;19.70;99.90
53294;DHT22;39181;53.440;5.644;2023-08-21T07:39:43;19.80;99.90
53294;DHT22;39181;53.440;5.644;2023-08-21T07:42:11;19.90;99.90
53294;DHT22;39181;53.440;5.644;2023-08-21T07:44:38;20.10;99.90
53294;DHT22;39181;53.440;5.644;2023-08-21T07:47:04;20.20;99.90
53294;DHT22;39181;53.440;5.644;2023-08-21T07:49:31;20.40;99.90
53294;DHT22;39181;53.440;5.644;2023-08-21T07:51:56;20.60;99.90
53294;DHT22;39181;53.440;5.644;2023-08-21T07:54:22;20.80;99.90
53294;DHT22;39181;53.440;5.644;2023-08-21T07:56:49;20.80;99.90
53294;DHT22;39181;53.440;5.644;2023-08-21T07:59:15;21.10;99.90
53294;DHT22;39181;53.440;5.644;2023-08-21T08:01:41;21.20;99.90
53294;DHT22;39181;53.440;5.644;2023-08-21T08:04:07;21.40;99.90
53294;DHT22;39181;53.440;5.644;2023-08-21T08:06:32;21.60;99.90
53294;DHT22;39181;53.440;5.644;2023-08-21T08:08:58;21.60;99.90
53294;DHT22;39181;53.440;5.644;2023-08-21T08:11:24;21.70;99.90
53294;DHT22;39181;53.440;5.644;2023-08-21T08:13:50;21.90;99.90
53294;DHT22;39181;53.440;5.644;2023-08-21T08:16:15;22.10;99.90
53294;DHT22;39181;53.440;5.644;2023-08-21T08:18:42;22.20;99.90
53294;DHT22;39181;53.440;5.644;2023-08-21T08:21:08;22.20;99.90
53294;DHT22;39181;53.440;5.644;2023-08-21T08:23:34;22.30;99.90
53294;DHT22;39181;53.440;5.644;2023-08-21T08:26:00;22.40;99.90
53294;DHT22;39181;53.440;5.644;2023-08-21T08:28:25;22.50;99.90
53294;DHT22;39181;53.440;5.644;2023-08-21T08:30:51;22.70;99.90
53294;DHT22;39181;53.440;5.644;2023-08-21T08:33:17;22.80;99.90
53294;DHT22;39181;53.440;5.644;2023-08-21T08:35:43;22.80;99.90
53294;DHT22;39181;53.440;5.644;2023-08-21T08:38:09;22.90;99.90
53294;DHT22;39181;53.440;5.644;2023-08-21T08:40:37;22.90;99.90
53294;DHT22;39181;53.440;5.644;2023-08-21T08:43:08;23.00;99.90
53294;DHT22;39181;53.440;5.644;2023-08-21T08:45:34;23.20;99.90
53294;DHT22;39181;53.440;5.644;2023-08-21T08:48:01;23.30;99.90
53294;DHT22;39181;53.440;5.644;2023-08-21T08:50:30;23.40;99.90
53294;DHT22;39181;53.440;5.644;2023-08-21T08:52:57;23.40;99.90
53294;DHT22;39181;53.440;5.644;2023-08-21T08:55:23;23.50;99.90
53294;DHT22;39181;53.440;5.644;2023-08-21T08:57:49;23.70;99.90
53294;DHT22;39181;53.440;5.644;2023-08-21T09:00:14;23.80;99.90
53294;DHT22;39181;53.440;5.644;2023-08-21T09:02:40;23.80;99.90
53294;DHT22;39181;53.440;5.644;2023-08-21T09:05:06;23.90;99.90
53294;DHT22;39181;53.440;5.644;2023-08-21T09:07:33;24.00;99.90
53294;DHT22;39181;53.440;5.644;2023-08-21T09:09:59;24.10;99.90
53294;DHT22;39181;53.440;5.644;2023-08-21T09:12:25;24.10;99.90
53294;DHT22;39181;53.440;5.644;2023-08-21T09:14:51;24.10;99.90
53294;DHT22;39181;53.440;5.644;2023-08-21T09:17:16;24.20;99.90
53294;DHT22;39181;53.440;5.644;2023-08-21T09:19:43;24.10;99.90
53294;DHT22;39181;53.440;5.644;2023-08-21T09:22:16;24.30;99.90
53294;DHT22;39181;53.440;5.644;2023-08-21T09:25:16;24.30;99.90
53294;DHT22;39181;53.440;5.644;2023-08-21T09:27:43;24.40;99.90
53294;DHT22;39181;53.440;5.644;2023-08-21T09:30:10;24.50;99.90
53294;DHT22;39181;53.440;5.644;2023-08-21T09:32:59;24.60;99.90
53294;DHT22;39181;53.440;5.644;2023-08-21T09:35:33;24.60;99.90
53294;DHT22;39181;53.440;5.644;2023-08-21T09:37:59;24.70;99.90
53294;DHT22;39181;53.440;5.644;2023-08-21T09:40:24;24.90;99.90
53294;DHT22;39181;53.440;5.644;2023-08-21T09:42:54;24.90;99.90
53294;DHT22;39181;53.440;5.644;2023-08-21T09:45:24;25.00;99.90
53294;DHT22;39181;53.440;5.644;2023-08-21T09:47:51;24.90;99.90
53294;DHT22;39181;53.440;5.644;2023-08-21T09:50:18;24.90;99.90
53294;DHT22;39181;53.440;5.644;2023-08-21T09:52:44;25.00;99.90
53294;DHT22;39181;53.440;5.644;2023-08-21T09:55:10;25.10;99.90
53294;DHT22;39181;53.440;5.644;2023-08-21T09:57:37;25.10;99.90
53294;DHT22;39181;53.440;5.644;2023-08-21T10:00:03;25.10;99.90
53294;DHT22;39181;53.440;5.644;2023-08-21T10:02:42;25.20;99.90
53294;DHT22;39181;53.440;5.644;2023-08-21T10:05:09;25.30;99.90
53294;DHT22;39181;53.440;5.644;2023-08-21T10:07:36;25.40;99.90
53294;DHT22;39181;53.440;5.644;2023-08-21T10:10:02;25.50;99.90
53294;DHT22;39181;53.440;5.644;2023-08-21T10:12:28;25.60;99.90
53294;DHT22;39181;53.440;5.644;2023-08-21T10:14:54;25.70;99.90
53294;DHT22;39181;53.440;5.644;2023-08-21T10:17:20;25.80;99.90
53294;DHT22;39181;53.440;5.644;2023-08-21T10:19:52;25.70;99.90
53294;DHT22;39181;53.440;5.644;2023-08-21T10:23:00;25.60;99.90
53294;DHT22;39181;53.440;5.644;2023-08-21T10:25:17;25.70;99.90
53294;DHT22;39181;53.440;5.644;2023-08-21T10:27:46;25.50;99.90
53294;DHT22;39181;53.440;5.644;2023-08-21T10:30:13;25.60;99.90
53294;DHT22;39181;53.440;5.644;2023-08-21T10:32:51;25.70;99.90
53294;DHT22;39181;53.440;5.644;2023-08-21T10:35:22;25.80;99.90
53294;DHT22;39181;53.440;5.644;2023-08-21T10:38:10;25.90;99.90
53294;DHT22;39181;53.440;5.644;2023-08-21T10:40:38;26.00;99.90
53294;DHT22;39181;53.440;5.644;2023-08-21T10:43:04;26.00;99.90
53294;DHT22;39181;53.440;5.644;2023-08-21T10:45:54;26.10;99.90
53294;DHT22;39181;53.440;5.644;2023-08-21T10:48:20;25.80;99.90
53294;DHT22;39181;53.440;5.644;2023-08-21T10:50:46;25.80;99.90
53294;DHT22;39181;53.440;5.644;2023-08-21T10:53:13;26.00;99.90
53294;DHT22;39181;53.440;5.644;2023-08-21T10:55:38;26.10;99.90
53294;DHT22;39181;53.440;5.644;2023-08-21T10:58:04;26.30;99.90
53294;DHT22;39181;53.440;5.644;2023-08-21T11:00:29;26.30;99.90
53294;DHT22;39181;53.440;5.644;2023-08-21T11:02:55;26.40;99.90
53294;DHT22;39181;53.440;5.644;2023-08-21T11:05:21;26.30;99.90
53294;DHT22;39181;53.440;5.644;2023-08-21T11:07:47;26.30;99.90
53294;DHT22;39181;53.440;5.644;2023-08-21T11:10:18;26.20;99.90
53294;DHT22;39181;53.440;5.644;2023-08-21T11:12:57;26.30;99.90
53294;DHT22;39181;53.440;5.644;2023-08-21T11:15:24;26.40;99.90
53294;DHT22;39181;53.440;5.644;2023-08-21T11:17:55;26.50;99.90
53294;DHT22;39181;53.440;5.644;2023-08-21T11:20:21;26.60;99.90
53294;DHT22;39181;53.440;5.644;2023-08-21T11:22:46;26.50;99.90
53294;DHT22;39181;53.440;5.644;2023-08-21T11:25:12;26.40;99.90
53294;DHT22;39181;53.440;5.644;2023-08-21T11:27:39;26.40;99.90
53294;DHT22;39181;53.440;5.644;2023-08-21T11:30:05;26.20;99.90
53294;DHT22;39181;53.440;5.644;2023-08-21T11:32:31;26.30;99.90
53294;DHT22;39181;53.440;5.644;2023-08-21T11:34:57;26.20;99.90
53294;DHT22;39181;53.440;5.644;2023-08-21T11:37:24;26.30;99.90
53294;DHT22;39181;53.440;5.644;2023-08-21T11:39:55;26.20;99.90
53294;DHT22;39181;53.440;5.644;2023-08-21T11:42:30;25.80;99.90
53294;DHT22;39181;53.440;5.644;2023-08-21T11:44:56;26.00;99.90
53294;DHT22;39181;53.440;5.644;2023-08-21T11:47:23;26.00;99.90
53294;DHT22;39181;53.440;5.644;2023-08-21T11:49:49;26.10;99.90
53294;DHT22;39181;53.440;5.644;2023-08-21T11:52:23;26.00;99.90
53294;DHT22;39181;53.440;5.644;2023-08-21T11:54:53;25.90;99.90
53294;DHT22;39181;53.440;5.644;2023-08-21T11:57:21;26.00;99.90
53294;DHT22;39181;53.440;5.644;2023-08-21T11:59:51;26.00;99.90
53294;DHT22;39181;53.440;5.644;2023-08-21T12:02:18;26.20;99.90
53294;DHT22;39181;53.440;5.644;2023-08-21T12:04:44;26.30;99.90
53294;DHT22;39181;53.440;5.644;2023-08-21T12:07:12;26.30;99.90
53294;DHT22;39181;53.440;5.644;2023-08-21T12:09:38;26.20;99.90
53294;DHT22;39181;53.440;5.644;2023-08-21T12:12:04;26.20;99.90
53294;DHT22;39181;53.440;5.644;2023-08-21T12:14:31;26.30;99.90
53294;DHT22;39181;53.440;5.644;2023-08-21T12:16:56;26.40;99.90
53294;DHT22;39181;53.440;5.644;2023-08-21T12:19:22;26.40;99.90
53294;DHT22;39181;53.440;5.644;2023-08-21T12:21:48;26.40;99.90
53294;DHT22;39181;53.440;5.644;2023-08-21T12:24:14;26.30;99.90
53294;DHT22;39181;53.440;5.644;2023-08-21T12:26:39;26.30;99.90
53294;DHT22;39181;53.440;5.644;2023-08-21T12:29:05;26.30;99.90
53294;DHT22;39181;53.440;5.644;2023-08-21T12:31:30;26.20;99.90
53294;DHT22;39181;53.440;5.644;2023-08-21T12:33:56;26.10;99.90
53294;DHT22;39181;53.440;5.644;2023-08-21T12:36:22;26.10;99.90
53294;DHT22;39181;53.440;5.644;2023-08-21T12:38:47;26.00;99.90
53294;DHT22;39181;53.440;5.644;2023-08-21T12:41:13;25.90;99.90
53294;DHT22;39181;53.440;5.644;2023-08-21T12:43:39;25.90;99.90
53294;DHT22;39181;53.440;5.644;2023-08-21T12:46:05;25.90;99.90
53294;DHT22;39181;53.440;5.644;2023-08-21T12:48:31;25.90;99.90
53294;DHT22;39181;53.440;5.644;2023-08-21T12:50:56;25.90;99.90
53294;DHT22;39181;53.440;5.644;2023-08-21T12:53:22;26.00;99.90
53294;DHT22;39181;53.440;5.644;2023-08-21T12:55:47;25.80;99.90
53294;DHT22;39181;53.440;5.644;2023-08-21T12:58:14;25.70;99.90
53294;DHT22;39181;53.440;5.644;2023-08-21T13:00:40;25.80;99.90
53294;DHT22;39181;53.440;5.644;2023-08-21T13:03:06;25.80;99.90
53294;DHT22;39181;53.440;5.644;2023-08-21T13:05:31;25.80;99.90
53294;DHT22;39181;53.440;5.644;2023-08-21T13:07:57;25.60;99.90
53294;DHT22;39181;53.440;5.644;2023-08-21T13:10:22;25.60;99.90
53294;DHT22;39181;53.440;5.644;2023-08-21T13:12:48;25.50;99.90
53294;DHT22;39181;53.440;5.644;2023-08-21T13:15:15;25.60;99.90
53294;DHT22;39181;53.440;5.644;2023-08-21T13:17:40;25.40;99.90
53294;DHT22;39181;53.440;5.644;2023-08-21T13:20:08;25.40;99.90
53294;DHT22;39181;53.440;5.644;2023-08-21T13:22:44;25.10;99.90
53294;DHT22;39181;53.440;5.644;2023-08-21T13:25:10;25.20;99.90
53294;DHT22;39181;53.440;5.644;2023-08-21T13:27:36;25.00;99.90
53294;DHT22;39181;53.440;5.644;2023-08-21T13:30:01;25.00;99.90
53294;DHT22;39181;53.440;5.644;2023-08-21T13:32:27;24.90;99.90
53294;DHT22;39181;53.440;5.644;2023-08-21T13:34:54;24.90;99.90
53294;DHT22;39181;53.440;5.644;2023-08-21T13:37:19;24.70;99.90
53294;DHT22;39181;53.440;5.644;2023-08-21T13:39:45;24.80;99.90
53294;DHT22;39181;53.440;5.644;2023-08-21T13:42:10;24.70;99.90
53294;DHT22;39181;53.440;5.644;2023-08-21T13:44:36;24.70;99.90
53294;DHT22;39181;53.440;5.644;2023-08-21T13:47:01;24.60;99.90
53294;DHT22;39181;53.440;5.644;2023-08-21T13:49:27;24.50;99.90
53294;DHT22;39181;53.440;5.644;2023-08-21T13:51:52;24.40;99.90
53294;DHT22;39181;53.440;5.644;2023-08-21T13:54:18;24.40;99.90
53294;DHT22;39181;53.440;5.644;2023-08-21T13:56:44;24.40;99.90
53294;DHT22;39181;53.440;5.644;2023-08-21T13:59:09;24.10;99.90
53294;DHT22;39181;53.440;5.644;2023-08-21T14:01:35;24.10;99.90
53294;DHT22;39181;53.440;5.644;2023-08-21T14:04:00;24.10;99.90
53294;DHT22;39181;53.440;5.644;2023-08-21T14:06:28;24.10;99.90
53294;DHT22;39181;53.440;5.644;2023-08-21T14:08:55;24.10;99.90
53294;DHT22;39181;53.440;5.644;2023-08-21T14:11:20;24.10;99.90
53294;DHT22;39181;53.440;5.644;2023-08-21T14:13:46;24.00;99.90
53294;DHT22;39181;53.440;5.644;2023-08-21T14:16:12;24.10;99.90
53294;DHT22;39181;53.440;5.644;2023-08-21T14:18:38;24.10;99.90
53294;DHT22;39181;53.440;5.644;2023-08-21T14:21:03;24.00;99.90
53294;DHT22;39181;53.440;5.644;2023-08-21T14:23:29;23.90;99.90
53294;DHT22;39181;53.440;5.644;2023-08-21T14:25:55;23.90;99.90
53294;DHT22;39181;53.440;5.644;2023-08-21T14:28:20;23.70;99.90
53294;DHT22;39181;53.440;5.644;2023-08-21T14:30:46;23.60;99.90
53294;DHT22;39181;53.440;5.644;2023-08-21T14:33:12;23.60;99.90
53294;DHT22;39181;53.440;5.644;2023-08-21T14:35:38;23.50;99.90
53294;DHT22;39181;53.440;5.644;2023-08-21T14:38:03;23.50;99.90
53294;DHT22;39181;53.440;5.644;2023-08-21T14:40:29;23.40;99.90
53294;DHT22;39181;53.440;5.644;2023-08-21T14:42:54;23.30;99.90
53294;DHT22;39181;53.440;5.644;2023-08-21T14:45:20;23.30;99.90
53294;DHT22;39181;53.440;5.644;2023-08-21T14:47:46;23.30;99.90
53294;DHT22;39181;53.440;5.644;2023-08-21T14:50:12;23.30;99.90
53294;DHT22;39181;53.440;5.644;2023-08-21T14:52:37;23.20;99.90
53294;DHT22;39181;53.440;5.644;2023-08-21T14:55:03;23.10;99.90
53294;DHT22;39181;53.440;5.644;2023-08-21T14:57:29;23.10;99.90
53294;DHT22;39181;53.440;5.644;2023-08-21T14:59:55;23.10;99.90
53294;DHT22;39181;53.440;5.644;2023-08-21T15:02:21;23.00;99.90
53294;DHT22;39181;53.440;5.644;2023-08-21T15:04:47;23.10;99.90
53294;DHT22;39181;53.440;5.644;2023-08-21T15:07:12;23.10;99.90
53294;DHT22;39181;53.440;5.644;2023-08-21T15:09:38;23.10;99.90
53294;DHT22;39181;53.440;5.644;2023-08-21T15:12:03;23.10;99.90
53294;DHT22;39181;53.440;5.644;2023-08-21T15:14:29;23.00;99.90
53294;DHT22;39181;53.440;5.644;2023-08-21T15:16:55;23.00;99.90
53294;DHT22;39181;53.440;5.644;2023-08-21T15:19:20;22.90;99.90
53294;DHT22;39181;53.440;5.644;2023-08-21T15:21:46;22.90;99.90
53294;DHT22;39181;53.440;5.644;2023-08-21T15:24:11;22.80;99.90
53294;DHT22;39181;53.440;5.644;2023-08-21T15:26:37;22.80;99.90